createdAt,value
2022-11-19T00:00:25.235Z,1008.95
2022-11-19T00:01:25.223Z,1008.96
2022-11-19T00:02:25.271Z,1008.95
2022-11-19T00:03:25.208Z,1008.93
2022-11-19T00:04:25.203Z,1008.95
2022-11-19T00:05:25.197Z,1008.95
2022-11-19T00:06:25.192Z,1008.90
2022-11-19T00:07:25.267Z,1008.90
2022-11-19T00:08:25.179Z,1008.88
2022-11-19T00:09:25.164Z,1008.89
2022-11-19T00:10:25.158Z,1008.85
2022-11-19T00:11:25.148Z,1008.86
2022-11-19T00:12:25.147Z,1008.87
2022-11-19T00:13:25.135Z,1008.85
2022-11-19T00:14:25.131Z,1008.85
2022-11-19T00:15:25.119Z,1008.87
2022-11-19T00:16:25.127Z,1008.83
2022-11-19T00:17:25.107Z,1008.84
2022-11-19T00:18:25.104Z,1008.85
2022-11-19T00:19:25.089Z,1008.87
2022-11-19T00:20:25.084Z,1008.92
2022-11-19T00:21:25.080Z,1008.91
2022-11-19T00:22:25.074Z,1008.91
2022-11-19T00:23:25.088Z,1008.90
2022-11-19T00:24:25.059Z,1008.93
2022-11-19T00:25:25.046Z,1008.98
2022-11-19T00:26:25.038Z,1008.98
2022-11-19T00:27:25.031Z,1008.99
2022-11-19T00:28:25.027Z,1009.02
2022-11-19T00:29:25.016Z,1009.00
2022-11-19T00:30:46.977Z,1008.98
2022-11-19T00:31:24.998Z,1008.96
2022-11-19T00:32:24.997Z,1008.97
2022-11-19T00:33:24.984Z,1009.00
2022-11-19T00:34:24.984Z,1008.95
2022-11-19T00:35:24.968Z,1008.97
2022-11-19T00:36:24.965Z,1008.96
2022-11-19T00:37:24.952Z,1008.97
2022-11-19T00:38:24.950Z,1008.99
2022-11-19T00:39:24.965Z,1009.03
2022-11-19T00:40:24.934Z,1009.01
2022-11-19T00:41:24.924Z,1009.04
2022-11-19T00:42:24.919Z,1009.08
2022-11-19T00:43:24.911Z,1009.08
2022-11-19T00:44:24.907Z,1009.09
2022-11-19T00:45:24.893Z,1009.10
2022-11-19T00:46:24.904Z,1009.14
2022-11-19T00:47:24.889Z,1009.13
2022-11-19T00:48:24.871Z,1009.11
2022-11-19T00:49:24.863Z,1009.14
2022-11-19T00:50:24.860Z,1009.13
2022-11-19T00:51:24.849Z,1009.16
2022-11-19T00:52:24.843Z,1009.15
2022-11-19T00:53:24.833Z,1009.19
2022-11-19T00:54:24.832Z,1009.21
2022-11-19T00:55:24.843Z,1009.16
2022-11-19T00:56:24.816Z,1009.18
2022-11-19T00:57:24.804Z,1009.14
2022-11-19T00:58:24.800Z,1009.16
2022-11-19T00:59:24.788Z,1009.14
2022-11-19T01:00:24.780Z,1009.13
2022-11-19T01:01:24.882Z,1009.19
2022-11-19T01:02:24.770Z,1009.18
2022-11-19T01:03:24.760Z,1009.23
2022-11-19T01:04:24.755Z,1009.27
2022-11-19T01:05:24.745Z,1009.25
2022-11-19T01:06:24.739Z,1009.29
2022-11-19T01:07:24.766Z,1009.27
2022-11-19T01:08:24.726Z,1009.34
2022-11-19T01:09:24.713Z,1009.33
2022-11-19T01:10:24.706Z,1009.30
2022-11-19T01:11:24.726Z,1009.38
2022-11-19T01:12:24.694Z,1009.36
2022-11-19T01:13:24.682Z,1009.31
2022-11-19T01:14:24.684Z,1009.37
2022-11-19T01:15:24.664Z,1009.30
2022-11-19T01:16:24.665Z,1009.38
2022-11-19T01:17:24.651Z,1009.31
2022-11-19T01:18:24.646Z,1009.36
2022-11-19T01:19:24.640Z,1009.29
2022-11-19T01:20:24.667Z,1009.30
2022-11-19T01:21:24.617Z,1009.25
2022-11-19T01:22:24.615Z,1009.29
2022-11-19T01:23:24.606Z,1009.31
2022-11-19T01:24:24.596Z,1009.28
2022-11-19T01:25:24.586Z,1009.23
2022-11-19T01:26:24.584Z,1009.21
2022-11-19T01:27:24.592Z,1009.26
2022-11-19T01:28:24.572Z,1009.24
2022-11-19T01:29:24.556Z,1009.29
2022-11-19T01:30:24.554Z,1009.30
2022-11-19T01:31:24.540Z,1009.30
2022-11-19T01:32:24.535Z,1009.32
2022-11-19T01:33:24.525Z,1009.34
2022-11-19T01:34:24.522Z,1009.32
2022-11-19T01:35:24.509Z,1009.34
2022-11-19T01:36:24.510Z,1009.34
2022-11-19T01:37:24.495Z,1009.39
2022-11-19T01:38:24.493Z,1009.35
2022-11-19T01:39:24.478Z,1009.38
2022-11-19T01:40:24.476Z,1009.37
2022-11-19T01:41:24.477Z,1009.36
2022-11-19T01:42:24.458Z,1009.40
2022-11-19T01:43:24.465Z,1009.37
2022-11-19T01:44:24.444Z,1009.37
2022-11-19T01:45:24.431Z,1009.37
2022-11-19T01:46:24.429Z,1009.43
2022-11-19T01:47:24.420Z,1009.45
2022-11-19T01:48:24.418Z,1009.44
2022-11-19T01:49:24.402Z,1009.44
2022-11-19T01:50:24.397Z,1009.48
2022-11-19T01:51:24.387Z,1009.50
2022-11-19T01:52:24.377Z,1009.46
2022-11-19T01:53:24.379Z,1009.49
2022-11-19T01:54:24.360Z,1009.53
2022-11-19T01:55:24.354Z,1009.54
2022-11-19T01:56:24.352Z,1009.51
2022-11-19T01:57:24.338Z,1009.53
2022-11-19T01:58:24.338Z,1009.52
2022-11-19T01:59:24.344Z,1009.49
2022-11-19T02:00:24.316Z,1009.52
2022-11-19T02:01:24.388Z,1009.53
2022-11-19T02:02:24.301Z,1009.53
2022-11-19T02:03:24.295Z,1009.55
2022-11-19T02:04:24.286Z,1009.51
2022-11-19T02:05:24.278Z,1009.54
2022-11-19T02:06:24.271Z,1009.54
2022-11-19T02:07:24.306Z,1009.57
2022-11-19T02:08:24.256Z,1009.60
2022-11-19T02:09:24.244Z,1009.57
2022-11-19T02:10:24.248Z,1009.61
2022-11-19T02:11:24.221Z,1009.59
2022-11-19T02:12:24.226Z,1009.59
2022-11-19T02:13:24.215Z,1009.58
2022-11-19T02:14:24.206Z,1009.60
2022-11-19T02:15:24.219Z,1009.59
2022-11-19T02:16:24.194Z,1009.57
2022-11-19T02:17:24.182Z,1009.54
2022-11-19T02:18:24.178Z,1009.53
2022-11-19T02:19:24.164Z,1009.52
2022-11-19T02:20:24.159Z,1009.47
2022-11-19T02:21:24.148Z,1009.52
2022-11-19T02:22:24.146Z,1009.50
2022-11-19T02:23:24.133Z,1009.48
2022-11-19T02:24:24.128Z,1009.48
2022-11-19T02:25:24.119Z,1009.49
2022-11-19T02:26:24.106Z,1009.49
2022-11-19T02:27:24.106Z,1009.50
2022-11-19T02:28:24.096Z,1009.47
2022-11-19T02:29:24.086Z,1009.47
2022-11-19T02:30:24.074Z,1009.46
2022-11-19T02:31:24.136Z,1009.47
2022-11-19T02:32:24.059Z,1009.50
2022-11-19T02:33:24.057Z,1009.48
2022-11-19T02:34:24.049Z,1009.45
2022-11-19T02:35:24.042Z,1009.45
2022-11-19T02:36:24.029Z,1009.43
2022-11-19T02:37:24.023Z,1009.47
2022-11-19T02:38:24.017Z,1009.48
2022-11-19T02:39:24.009Z,1009.45
2022-11-19T02:40:24.046Z,1009.44
2022-11-19T02:41:23.995Z,1009.43
2022-11-19T02:42:23.984Z,1009.45
2022-11-19T02:43:23.977Z,1009.41
2022-11-19T02:44:23.967Z,1009.42
2022-11-19T02:45:23.962Z,1009.40
2022-11-19T02:46:23.948Z,1009.41
2022-11-19T02:47:23.968Z,1009.42
2022-11-19T02:48:23.934Z,1009.40
2022-11-19T02:49:23.932Z,1009.45
2022-11-19T02:50:23.915Z,1009.49
2022-11-19T02:51:23.913Z,1009.47
2022-11-19T02:52:23.919Z,1009.48
2022-11-19T02:53:23.897Z,1009.50
2022-11-19T02:54:23.885Z,1009.49
2022-11-19T02:55:23.883Z,1009.51
2022-11-19T02:56:23.869Z,1009.49
2022-11-19T02:57:23.865Z,1009.50
2022-11-19T02:58:23.852Z,1009.44
2022-11-19T02:59:23.848Z,1009.46
2022-11-19T03:00:23.836Z,1009.46
2022-11-19T03:01:23.885Z,1009.43
2022-11-19T03:02:23.820Z,1009.44
2022-11-19T03:03:23.842Z,1009.42
2022-11-19T03:04:23.806Z,1009.45
2022-11-19T03:05:23.801Z,1009.42
2022-11-19T03:06:23.788Z,1009.43
2022-11-19T03:07:23.857Z,1009.47
2022-11-19T03:08:23.775Z,1009.45
2022-11-19T03:09:23.769Z,1009.45
2022-11-19T03:10:23.757Z,1009.46
2022-11-19T03:11:23.748Z,1009.43
2022-11-19T03:12:23.740Z,1009.44
2022-11-19T03:13:23.734Z,1009.49
2022-11-19T03:14:23.722Z,1009.41
2022-11-19T03:15:23.720Z,1009.44
2022-11-19T03:16:23.708Z,1009.40
2022-11-19T03:17:23.703Z,1009.40
2022-11-19T03:18:23.691Z,1009.39
2022-11-19T03:19:23.711Z,1009.39
2022-11-19T03:20:23.678Z,1009.37
2022-11-19T03:21:23.674Z,1009.37
2022-11-19T03:22:23.659Z,1009.41
2022-11-19T03:23:23.654Z,1009.39
2022-11-19T03:24:23.643Z,1009.40
2022-11-19T03:25:23.636Z,1009.37
2022-11-19T03:26:23.627Z,1009.43
2022-11-19T03:27:23.626Z,1009.45
2022-11-19T03:28:23.613Z,1009.48
2022-11-19T03:29:23.606Z,1009.49
2022-11-19T03:30:23.592Z,1009.47
2022-11-19T03:31:23.591Z,1009.52
2022-11-19T03:32:23.582Z,1009.58
2022-11-19T03:33:23.576Z,1009.56
2022-11-19T03:34:23.564Z,1009.52
2022-11-19T03:35:23.580Z,1009.57
2022-11-19T03:36:23.547Z,1009.49
2022-11-19T03:37:23.544Z,1009.53
2022-11-19T03:38:23.529Z,1009.54
2022-11-19T03:39:23.532Z,1009.54
2022-11-19T03:40:23.512Z,1009.52
2022-11-19T03:41:23.513Z,1009.50
2022-11-19T03:42:23.498Z,1009.52
2022-11-19T03:43:23.496Z,1009.52
2022-11-19T03:44:23.483Z,1009.57
2022-11-19T03:45:23.473Z,1009.56
2022-11-19T03:46:23.464Z,1009.59
2022-11-19T03:47:23.460Z,1009.66
2022-11-19T03:48:23.454Z,1009.63
2022-11-19T03:49:23.445Z,1009.66
2022-11-19T03:50:23.431Z,1009.68
2022-11-19T03:51:23.448Z,1009.68
2022-11-19T03:52:23.421Z,1009.69
2022-11-19T03:53:23.412Z,1009.69
2022-11-19T03:54:23.397Z,1009.72
2022-11-19T03:55:23.395Z,1009.76
2022-11-19T03:56:23.384Z,1009.77
2022-11-19T03:57:23.381Z,1009.73
2022-11-19T03:58:23.369Z,1009.72
2022-11-19T03:59:28.306Z,1009.74
2022-11-19T04:00:23.354Z,1009.70
2022-11-19T04:01:23.422Z,1009.75
2022-11-19T04:02:23.334Z,1009.76
2022-11-19T04:03:23.332Z,1009.70
2022-11-19T04:04:23.323Z,1009.70
2022-11-19T04:05:23.314Z,1009.68
2022-11-19T04:06:23.303Z,1009.70
2022-11-19T04:07:23.558Z,1009.70
2022-11-19T04:08:23.287Z,1009.71
2022-11-19T04:09:23.284Z,1009.71
2022-11-19T04:10:23.271Z,1009.74
2022-11-19T04:12:02.747Z,1009.75
2022-11-19T04:13:02.732Z,1009.70
2022-11-19T04:14:02.724Z,1009.68
2022-11-19T04:15:02.722Z,1009.69
2022-11-19T04:16:02.701Z,1009.68
2022-11-19T04:17:02.697Z,1009.65
2022-11-19T04:18:02.685Z,1009.67
2022-11-19T04:19:02.681Z,1009.68
2022-11-19T04:20:02.673Z,1009.67
2022-11-19T04:21:02.668Z,1009.68
2022-11-19T04:22:02.656Z,1009.69
2022-11-19T04:23:02.679Z,1009.73
2022-11-19T04:24:02.637Z,1009.74
2022-11-19T04:25:02.634Z,1009.77
2022-11-19T04:26:02.623Z,1009.78
2022-11-19T04:27:02.614Z,1009.77
2022-11-19T04:28:02.608Z,1009.79
2022-11-19T04:29:02.602Z,1009.83
2022-11-19T04:30:02.593Z,1009.80
2022-11-19T04:31:02.577Z,1009.82
2022-11-19T04:32:02.573Z,1009.83
2022-11-19T04:33:02.570Z,1009.82
2022-11-19T04:34:02.559Z,1009.80
2022-11-19T04:35:02.552Z,1009.80
2022-11-19T04:36:02.539Z,1009.78
2022-11-19T04:37:02.540Z,1009.76
2022-11-19T04:38:02.527Z,1009.71
2022-11-19T04:39:02.546Z,1009.74
2022-11-19T04:40:02.514Z,1009.76
2022-11-19T04:41:02.554Z,1009.75
2022-11-19T04:42:02.497Z,1009.70
2022-11-19T04:43:02.492Z,1009.70
2022-11-19T04:44:02.476Z,1009.68
2022-11-19T04:45:02.471Z,1009.68
2022-11-19T04:46:02.459Z,1009.64
2022-11-19T04:47:02.453Z,1009.62
2022-11-19T04:48:02.442Z,1009.62
2022-11-19T04:49:02.442Z,1009.60
2022-11-19T04:50:02.427Z,1009.57
2022-11-19T04:51:02.423Z,1009.58
2022-11-19T04:52:02.415Z,1009.59
2022-11-19T04:53:02.408Z,1009.57
2022-11-19T04:54:02.401Z,1009.64
2022-11-19T04:55:02.414Z,1009.60
2022-11-19T04:56:02.384Z,1009.60
2022-11-19T04:57:02.372Z,1009.59
2022-11-19T04:58:02.620Z,1009.59
2022-11-19T04:59:02.359Z,1009.56
2022-11-19T05:00:02.340Z,1009.55
2022-11-19T05:01:02.342Z,1009.57
2022-11-19T05:02:02.331Z,1009.55
2022-11-19T05:03:02.325Z,1009.60
2022-11-19T05:04:02.317Z,1009.60
2022-11-19T05:05:02.316Z,1009.57
2022-11-19T05:06:02.301Z,1009.53
2022-11-19T05:07:02.335Z,1009.56
2022-11-19T05:08:02.282Z,1009.56
2022-11-19T05:09:02.276Z,1009.57
2022-11-19T05:10:02.264Z,1009.55
2022-11-19T05:11:02.287Z,1009.57
2022-11-19T05:12:02.255Z,1009.55
2022-11-19T05:13:02.245Z,1009.55
2022-11-19T05:14:02.241Z,1009.53
2022-11-19T05:15:02.227Z,1009.48
2022-11-19T05:16:02.231Z,1009.48
2022-11-19T05:17:02.210Z,1009.47
2022-11-19T05:18:02.199Z,1009.49
2022-11-19T05:19:02.199Z,1009.50
2022-11-19T05:20:02.184Z,1009.51
2022-11-19T05:21:02.176Z,1009.52
2022-11-19T05:22:02.170Z,1009.47
2022-11-19T05:23:02.162Z,1009.48
2022-11-19T05:24:02.156Z,1009.48
2022-11-19T05:25:02.164Z,1009.47
2022-11-19T05:26:02.135Z,1009.48
2022-11-19T05:27:02.155Z,1009.45
2022-11-19T05:28:02.118Z,1009.46
2022-11-19T05:29:02.116Z,1009.45
2022-11-19T05:30:02.173Z,1009.45
2022-11-19T05:31:02.095Z,1009.44
2022-11-19T05:32:02.086Z,1009.40
2022-11-19T05:33:02.083Z,1009.40
2022-11-19T05:34:02.071Z,1009.38
2022-11-19T05:35:02.067Z,1009.38
2022-11-19T05:36:02.068Z,1009.39
2022-11-19T05:37:02.058Z,1009.40
2022-11-19T05:38:02.040Z,1009.43
2022-11-19T05:39:02.035Z,1009.44
2022-11-19T05:40:02.025Z,1009.43
2022-11-19T05:41:02.022Z,1009.45
2022-11-19T05:42:02.010Z,1009.45
2022-11-19T05:43:02.026Z,1009.44
2022-11-19T05:44:01.993Z,1009.43
2022-11-19T05:45:01.986Z,1009.44
2022-11-19T05:46:01.977Z,1009.45
2022-11-19T05:47:01.974Z,1009.50
2022-11-19T05:48:01.959Z,1009.48
2022-11-19T05:49:01.969Z,1009.43
2022-11-19T05:50:01.959Z,1009.48
2022-11-19T05:51:01.940Z,1009.48
2022-11-19T05:52:01.932Z,1009.51
2022-11-19T05:53:01.922Z,1009.51
2022-11-19T05:54:01.949Z,1009.52
2022-11-19T05:55:01.906Z,1009.52
2022-11-19T05:56:01.894Z,1009.50
2022-11-19T05:57:01.888Z,1009.48
2022-11-19T05:58:01.884Z,1009.54
2022-11-19T05:59:01.911Z,1009.50
2022-11-19T06:00:01.868Z,1009.50
2022-11-19T06:01:01.858Z,1009.54
2022-11-19T06:02:01.849Z,1009.52
2022-11-19T06:03:01.954Z,1009.51
2022-11-19T06:04:01.829Z,1009.48
2022-11-19T06:05:01.827Z,1009.52
2022-11-19T06:06:01.821Z,1009.50
2022-11-19T06:07:01.837Z,1009.52
2022-11-19T06:08:01.797Z,1009.50
2022-11-19T06:09:01.791Z,1009.54
2022-11-19T06:10:01.782Z,1009.53
2022-11-19T06:11:01.776Z,1009.59
2022-11-19T06:12:01.766Z,1009.58
2022-11-19T06:13:01.754Z,1009.58
2022-11-19T06:14:01.752Z,1009.59
2022-11-19T06:15:01.767Z,1009.56
2022-11-19T06:16:01.736Z,1009.55
2022-11-19T06:17:01.727Z,1009.55
2022-11-19T06:18:01.718Z,1009.54
2022-11-19T06:19:01.711Z,1009.57
2022-11-19T06:20:01.701Z,1009.62
2022-11-19T06:21:01.699Z,1009.57
2022-11-19T06:22:01.687Z,1009.58
2022-11-19T06:23:01.686Z,1009.58
2022-11-19T06:24:01.672Z,1009.56
2022-11-19T06:25:01.666Z,1009.57
2022-11-19T06:26:01.652Z,1009.54
2022-11-19T06:27:01.643Z,1009.55
2022-11-19T06:28:01.647Z,1009.53
2022-11-19T06:29:01.634Z,1009.57
2022-11-19T06:30:01.620Z,1009.50
2022-11-19T06:31:01.637Z,1009.50
2022-11-19T06:32:01.605Z,1009.47
2022-11-19T06:33:01.606Z,1009.51
2022-11-19T06:34:01.587Z,1009.48
2022-11-19T06:35:01.583Z,1009.50
2022-11-19T06:36:01.570Z,1009.51
2022-11-19T06:37:01.567Z,1009.48
2022-11-19T06:38:01.559Z,1009.48
2022-11-19T06:39:01.550Z,1009.50
2022-11-19T06:40:01.542Z,1009.51
2022-11-19T06:41:01.534Z,1009.50
2022-11-19T06:42:01.522Z,1009.48
2022-11-19T06:43:01.521Z,1009.48
2022-11-19T06:44:01.506Z,1009.49
2022-11-19T06:45:01.516Z,1009.49
2022-11-19T06:46:01.494Z,1009.51
2022-11-19T06:47:01.508Z,1009.55
2022-11-19T06:48:01.473Z,1009.54
2022-11-19T06:49:01.471Z,1009.55
2022-11-19T06:50:01.459Z,1009.51
2022-11-19T06:51:01.458Z,1009.54
2022-11-19T06:52:01.445Z,1009.55
2022-11-19T06:53:01.437Z,1009.53
2022-11-19T06:54:01.439Z,1009.58
2022-11-19T06:55:01.422Z,1009.57
2022-11-19T06:56:01.412Z,1009.58
2022-11-19T06:57:01.410Z,1009.59
2022-11-19T06:58:01.394Z,1009.57
2022-11-19T06:59:01.390Z,1009.61
2022-11-19T07:00:01.382Z,1009.56
2022-11-19T07:01:01.374Z,1009.55
2022-11-19T07:02:01.448Z,1009.59
2022-11-19T07:03:01.374Z,1009.59
2022-11-19T07:04:01.354Z,1009.62
2022-11-19T07:05:01.345Z,1009.65
2022-11-19T07:06:01.333Z,1009.65
2022-11-19T07:07:01.395Z,1009.64
2022-11-19T07:08:03.293Z,1009.68
2022-11-19T07:09:01.309Z,1009.70
2022-11-19T07:10:01.299Z,1009.58
2022-11-19T07:11:01.293Z,1009.59
2022-11-19T07:12:01.288Z,1009.54
2022-11-19T07:13:01.279Z,1009.51
2022-11-19T07:14:01.268Z,1009.52
2022-11-19T07:15:04.503Z,1009.50
2022-11-19T07:16:01.250Z,1009.53
2022-11-19T07:17:01.258Z,1009.53
2022-11-19T07:18:01.236Z,1009.59
2022-11-19T07:19:01.254Z,1009.65
2022-11-19T07:20:01.220Z,1009.66
2022-11-19T07:21:01.218Z,1009.68
2022-11-19T07:22:01.208Z,1009.67
2022-11-19T07:23:01.199Z,1009.61
2022-11-19T07:24:01.188Z,1009.62
2022-11-19T07:25:01.188Z,1009.63
2022-11-19T07:26:01.173Z,1009.65
2022-11-19T07:27:01.170Z,1009.62
2022-11-19T07:28:01.161Z,1009.61
2022-11-19T07:29:04.623Z,1009.59
2022-11-19T07:30:01.145Z,1009.60
2022-11-19T07:31:01.138Z,1009.54
2022-11-19T07:32:01.128Z,1009.56
2022-11-19T07:33:01.122Z,1009.53
2022-11-19T07:34:01.115Z,1009.58
2022-11-19T07:35:01.130Z,1009.58
2022-11-19T07:36:01.097Z,1009.57
2022-11-19T07:37:01.092Z,1009.57
2022-11-19T07:38:01.082Z,1009.57
2022-11-19T07:39:01.079Z,1009.62
2022-11-19T07:40:01.069Z,1009.61
2022-11-19T07:41:01.069Z,1009.61
2022-11-19T07:42:01.051Z,1009.61
2022-11-19T07:43:01.053Z,1009.62
2022-11-19T07:44:01.040Z,1009.67
2022-11-19T07:45:01.036Z,1009.60
2022-11-19T07:46:01.029Z,1009.55
2022-11-19T07:47:01.019Z,1009.54
2022-11-19T07:48:01.014Z,1009.60
2022-11-19T07:49:01.005Z,1009.54
2022-11-19T07:50:00.997Z,1009.57
2022-11-19T07:51:01.017Z,1009.56
2022-11-19T07:52:00.986Z,1009.61
2022-11-19T07:53:01.000Z,1009.60
2022-11-19T07:54:00.975Z,1009.57
2022-11-19T07:55:00.961Z,1009.61
2022-11-19T07:56:00.955Z,1009.60
2022-11-19T07:57:00.954Z,1009.65
2022-11-19T07:58:00.939Z,1009.59
2022-11-19T07:59:00.942Z,1009.62
2022-11-19T08:00:00.931Z,1009.61
2022-11-19T08:01:00.924Z,1009.58
2022-11-19T08:02:00.996Z,1009.59
2022-11-19T08:03:00.910Z,1009.50
2022-11-19T08:04:00.901Z,1009.52
2022-11-19T08:05:00.901Z,1009.49
2022-11-19T08:06:00.884Z,1009.49
2022-11-19T08:07:00.928Z,1009.44
2022-11-19T08:08:00.871Z,1009.42
2022-11-19T08:09:00.871Z,1009.37
2022-11-19T08:10:00.857Z,1009.38
2022-11-19T08:11:00.854Z,1009.37
2022-11-19T08:12:00.847Z,1009.33
2022-11-19T08:13:00.842Z,1009.37
2022-11-19T08:14:00.834Z,1009.35
2022-11-19T08:15:00.834Z,1009.30
2022-11-19T08:16:00.825Z,1009.29
2022-11-19T08:17:00.824Z,1009.29
2022-11-19T08:18:00.807Z,1009.28
2022-11-19T08:19:00.804Z,1009.30
2022-11-19T08:20:00.798Z,1009.33
2022-11-19T08:21:00.813Z,1009.33
2022-11-19T08:22:00.782Z,1009.30
2022-11-19T08:23:00.794Z,1009.30
2022-11-19T08:24:00.767Z,1009.29
2022-11-19T08:25:00.773Z,1009.29
2022-11-19T08:26:00.760Z,1009.30
2022-11-19T08:27:00.755Z,1009.27
2022-11-19T08:28:00.745Z,1009.29
2022-11-19T08:29:00.738Z,1009.24
2022-11-19T08:30:00.736Z,1009.26
2022-11-19T08:31:00.728Z,1009.26
2022-11-19T08:32:00.727Z,1009.20
2022-11-19T08:33:00.712Z,1009.20
2022-11-19T08:34:00.717Z,1009.15
2022-11-19T08:35:00.706Z,1009.17
2022-11-19T08:36:00.695Z,1009.19
2022-11-19T08:37:00.692Z,1009.20
2022-11-19T08:38:00.695Z,1009.22
2022-11-19T08:39:00.696Z,1009.20
2022-11-19T08:40:00.683Z,1009.26
2022-11-19T08:41:00.668Z,1009.32
2022-11-19T08:42:00.668Z,1009.37
2022-11-19T08:43:00.655Z,1009.33
2022-11-19T08:44:00.654Z,1009.36
2022-11-19T08:45:00.640Z,1009.22
2022-11-19T08:46:00.694Z,1009.33
2022-11-19T08:47:00.633Z,1009.33
2022-11-19T08:48:00.630Z,1009.23
2022-11-19T08:49:00.618Z,1009.31
2022-11-19T08:50:00.614Z,1009.27
2022-11-19T08:51:00.611Z,1009.18
2022-11-19T08:52:00.609Z,1009.25
2022-11-19T08:53:00.594Z,1009.22
2022-11-19T08:54:00.594Z,1009.26
2022-11-19T08:55:00.606Z,1009.28
2022-11-19T08:56:00.583Z,1009.26
2022-11-19T08:57:00.573Z,1009.24
2022-11-19T08:58:00.573Z,1009.23
2022-11-19T08:59:03.056Z,1009.21
2022-11-19T09:00:05.922Z,1009.27
2022-11-19T09:01:00.655Z,1009.18
2022-11-19T09:02:00.548Z,1009.17
2022-11-19T09:03:00.545Z,1009.21
2022-11-19T09:04:00.541Z,1009.22
2022-11-19T09:05:00.531Z,1009.23
2022-11-19T09:06:00.529Z,1009.24
2022-11-19T09:07:00.619Z,1009.25
2022-11-19T09:08:00.515Z,1009.22
2022-11-19T09:09:00.507Z,1009.18
2022-11-19T09:10:00.507Z,1009.18
2022-11-19T09:11:00.520Z,1009.18
2022-11-19T09:12:00.506Z,1009.14
2022-11-19T09:13:00.492Z,1009.08
2022-11-19T09:14:00.486Z,1009.13
2022-11-19T09:15:00.477Z,1009.13
2022-11-19T09:16:00.475Z,1009.09
2022-11-19T09:17:00.464Z,1009.13
2022-11-19T09:18:00.467Z,1009.15
2022-11-19T09:19:00.453Z,1009.15
2022-11-19T09:20:00.456Z,1009.15
2022-11-19T09:21:00.442Z,1009.13
2022-11-19T09:22:00.440Z,1009.13
2022-11-19T09:23:00.431Z,1009.13
2022-11-19T09:24:00.435Z,1009.11
2022-11-19T09:25:00.429Z,1009.15
2022-11-19T09:26:00.424Z,1009.18
2022-11-19T09:27:02.395Z,1009.20
2022-11-19T09:28:00.410Z,1009.19
2022-11-19T09:29:00.405Z,1009.18
2022-11-19T09:30:00.403Z,1009.21
2022-11-19T09:31:00.399Z,1009.16
2022-11-19T09:32:00.389Z,1009.18
2022-11-19T09:33:00.383Z,1009.16
2022-11-19T09:34:00.433Z,1009.15
2022-11-19T09:35:00.379Z,1009.15
2022-11-19T09:36:00.371Z,1009.14
2022-11-19T09:37:00.363Z,1009.13
2022-11-19T09:38:00.364Z,1009.13
2022-11-19T09:39:00.352Z,1009.14
2022-11-19T09:40:00.363Z,1009.13
2022-11-19T09:41:00.341Z,1009.18
2022-11-19T09:42:00.339Z,1009.11
2022-11-19T09:43:00.353Z,1009.13
2022-11-19T09:44:00.341Z,1009.13
2022-11-19T09:45:00.328Z,1009.16
2022-11-19T09:46:00.319Z,1009.16
2022-11-19T09:47:00.310Z,1009.15
2022-11-19T09:48:00.313Z,1009.18
2022-11-19T09:49:00.306Z,1009.22
2022-11-19T09:50:00.298Z,1009.20
2022-11-19T09:51:00.292Z,1009.18
2022-11-19T09:52:00.291Z,1009.23
2022-11-19T09:53:00.282Z,1009.18
2022-11-19T09:54:00.281Z,1009.18
2022-11-19T09:55:00.270Z,1009.19
2022-11-19T09:56:00.271Z,1009.18
2022-11-19T09:57:04.214Z,1009.18
2022-11-19T09:58:00.267Z,1009.15
2022-11-19T09:59:00.300Z,1009.16
2022-11-19T10:00:00.261Z,1009.14
2022-11-19T10:01:00.249Z,1009.12
2022-11-19T10:02:00.289Z,1009.10
2022-11-19T10:03:00.232Z,1009.13
2022-11-19T10:04:00.229Z,1009.10
2022-11-19T10:05:00.232Z,1009.10
2022-11-19T10:06:00.226Z,1009.08
2022-11-19T10:07:00.309Z,1009.06
2022-11-19T10:08:00.211Z,1009.08
2022-11-19T10:09:00.209Z,1009.04
2022-11-19T10:10:00.202Z,1008.95
2022-11-19T10:11:00.192Z,1008.99
2022-11-19T10:12:00.190Z,1008.95
2022-11-19T10:13:00.187Z,1008.93
2022-11-19T10:14:00.185Z,1008.97
2022-11-19T10:15:00.207Z,1008.95
2022-11-19T10:16:00.174Z,1008.94
2022-11-19T10:17:00.166Z,1008.92
2022-11-19T10:18:00.165Z,1008.86
2022-11-19T10:19:00.278Z,1008.91
2022-11-19T10:20:00.156Z,1008.88
2022-11-19T10:21:00.149Z,1008.85
2022-11-19T10:22:00.145Z,1008.82
2022-11-19T10:23:00.154Z,1008.86
2022-11-19T10:24:00.131Z,1008.81
2022-11-19T10:25:00.130Z,1008.83
2022-11-19T10:26:00.124Z,1008.79
2022-11-19T10:27:04.375Z,1008.78
2022-11-19T10:28:00.120Z,1008.72
2022-11-19T10:29:00.114Z,1008.72
2022-11-19T10:30:00.121Z,1008.70
2022-11-19T10:31:00.124Z,1008.70
2022-11-19T10:32:00.098Z,1008.70
2022-11-19T10:33:00.101Z,1008.70
2022-11-19T10:34:00.099Z,1008.64
2022-11-19T10:35:00.092Z,1008.61
2022-11-19T10:36:00.083Z,1008.63
2022-11-19T10:37:00.087Z,1008.62
2022-11-19T10:38:00.072Z,1008.58
2022-11-19T10:39:00.067Z,1008.55
2022-11-19T10:40:00.073Z,1008.58
2022-11-19T10:41:00.057Z,1008.59
2022-11-19T10:42:00.053Z,1008.53
2022-11-19T10:43:00.046Z,1008.62
2022-11-19T10:44:00.048Z,1008.55
2022-11-19T10:45:00.040Z,1008.55
2022-11-19T10:46:00.039Z,1008.53
2022-11-19T10:47:00.103Z,1008.51
2022-11-19T10:48:02.299Z,1008.44
2022-11-19T10:49:00.031Z,1008.49
2022-11-19T10:50:00.038Z,1008.51
2022-11-19T10:51:00.014Z,1008.44
2022-11-19T10:52:00.008Z,1008.47
2022-11-19T10:53:00.003Z,1008.48
2022-11-19T10:54:00.001Z,1008.52
2022-11-19T10:54:59.992Z,1008.48
2022-11-19T10:55:59.996Z,1008.51
2022-11-19T10:56:59.990Z,1008.48
2022-11-19T10:57:59.984Z,1008.51
2022-11-19T10:58:59.976Z,1008.50
2022-11-19T10:59:59.976Z,1008.49
2022-11-19T11:01:00.010Z,1008.51
2022-11-19T11:01:59.968Z,1008.49
2022-11-19T11:02:59.982Z,1008.47
2022-11-19T11:03:59.964Z,1008.45
2022-11-19T11:04:59.951Z,1008.48
2022-11-19T11:05:59.954Z,1008.42
2022-11-19T11:07:00.056Z,1008.35
2022-11-19T11:07:59.943Z,1008.41
2022-11-19T11:08:59.939Z,1008.35
2022-11-19T11:09:59.935Z,1008.37
2022-11-19T11:10:59.924Z,1008.36
2022-11-19T11:11:59.925Z,1008.38
2022-11-19T11:12:59.919Z,1008.34
2022-11-19T11:13:59.919Z,1008.33
2022-11-19T11:14:59.916Z,1008.31
2022-11-19T11:15:59.911Z,1008.31
2022-11-19T11:16:59.903Z,1008.30
2022-11-19T11:17:59.914Z,1008.26
2022-11-19T11:18:59.987Z,1008.29
2022-11-19T11:19:59.905Z,1008.25
2022-11-19T11:20:59.892Z,1008.22
2022-11-19T11:21:59.883Z,1008.24
2022-11-19T11:22:59.876Z,1008.19
2022-11-19T11:23:59.876Z,1008.17
2022-11-19T11:25:05.725Z,1008.22
2022-11-19T11:25:59.868Z,1008.19
2022-11-19T11:26:59.861Z,1008.16
2022-11-19T11:27:59.871Z,1008.12
2022-11-19T11:28:59.855Z,1008.07
2022-11-19T11:29:59.861Z,1008.09
2022-11-19T11:30:59.847Z,1008.02
2022-11-19T11:32:00.524Z,1008.00
2022-11-19T11:32:59.839Z,1008.01
2022-11-19T11:33:59.844Z,1008.06
2022-11-19T11:35:05.135Z,1007.97
2022-11-19T11:35:59.835Z,1007.97
2022-11-19T11:36:59.823Z,1007.94
2022-11-19T11:37:59.831Z,1007.98
2022-11-19T11:38:59.817Z,1007.93
2022-11-19T11:39:59.820Z,1007.94
2022-11-19T11:41:24.030Z,1007.90
2022-11-19T11:42:05.829Z,1007.90
2022-11-19T11:42:59.802Z,1007.88
2022-11-19T11:43:59.799Z,1007.92
2022-11-19T11:44:59.794Z,1007.86
2022-11-19T11:45:59.794Z,1007.90
2022-11-19T11:46:59.798Z,1007.90
2022-11-19T11:47:59.788Z,1007.90
2022-11-19T11:49:05.851Z,1007.87
2022-11-19T11:49:59.782Z,1007.86
2022-11-19T11:50:59.804Z,1007.87
2022-11-19T11:51:59.776Z,1007.82
2022-11-19T11:52:59.765Z,1007.82
2022-11-19T11:53:59.767Z,1007.81
2022-11-19T11:54:59.756Z,1007.84
2022-11-19T11:55:59.754Z,1007.85
2022-11-19T11:56:59.755Z,1007.84
2022-11-19T11:57:59.751Z,1007.89
2022-11-19T11:58:59.743Z,1007.94
2022-11-19T11:59:59.745Z,1007.93
2022-11-19T12:00:59.748Z,1007.94
2022-11-19T12:01:59.779Z,1007.96
2022-11-19T12:02:59.725Z,1007.96
2022-11-19T12:03:59.726Z,1007.94
2022-11-19T12:04:59.725Z,1007.94
2022-11-19T12:05:59.718Z,1007.97